Scott, Ohio
Current Conditions -  °F | °C
As of 8:53 AM on Saturday 25 Oct 2014 (Local Time) from KDFI Reporting Station
Haze Haze  
Wind Chill: 55°   Ceiling: 1900
Heat Index: 55°   Visibility: 5mi
Dew Point: 51°   Wind: 6mph
Humidity: 86%   Direction: 220°SW
Pressure: 29.9"   Gusts: NA
Location:  40.99°N, 84.58°W
Report Text: KDFI 251253Z AUTO 22005KT 5SM BR BKN019 13/11 A2990 RMK AO2 SLP126 T01280106
Loading
Personal Weather Stations






























Interactive Weather Map
Tropical Storm Tracking
New forecast layout! Learn more

10-Day Weather Forecast

Advertisements
Track Severe Weather on mobile